Au Sable, Michigan
Current Conditions -  °F | °C
As of 9:34 PM on Tuesday 21 Oct 2014 (Local Time) from KOSC Reporting Station
Overcast Overcast  
Wind Chill: 34°   Ceiling: 2900
Heat Index: 39°   Visibility: 10mi
Dew Point: 32°   Wind: 7mph
Humidity: 75%   Direction: 350°N
Pressure: 30.26"   Gusts: NA
Location:  44.4539°N, 83.4813°W
Report Text: KOSC 220134Z AUTO 35006KT 10SM OVC029 03/00 A3026 RMK AO2 T00410000
Loading
Personal Weather Stations






























Interactive Weather Map
Tropical Storm Tracking
New forecast layout! Learn more

10-Day Weather Forecast

Advertisements
Track Severe Weather on mobile